Kugluktuk Airport
CYCO : rendu visible

Aérodrome :











RETROUVEZ-NOUS SUR...

 
LOGIN :

S'inscrire | Disclaimer

   EN    FR    IT 

 









Légende :    VFR   VFR Marginal   IFR   IFR Intensif   IFR Très Intensif
Visi : 
Plafond : 
>= 8 km
>= 3000ft
5 à 8 km
1000 à 3000 ft
1500m à 5 km
500 à 1000 ft
800 à 1500m
200 à 500 ft
< 800m
< 200 ft
Symboles :   Orages  Brouillard  Fortes neiges  Fortes précipitations  Vent > 20 kt






- Altitude de l'aérodrome : 74 ft
- Code IATA : YCO


CYCO - Kugluktuk

DERNIER METAR :
  • 221900Z 03005KT 15SM SKC M30/M34 A2983 RMK SLP108

METARs EXPIRÉS :
  • 221800Z 03009KT 15SM FEW250 M31/M35 A2982 RMK CS1 CS TR SLP104
  • 221700Z 03008KT 15SM FEW300 M31/M35 A2980 RMK CI1 CI TR SLP097

TAF TAF CYCO
Valide du 22 à 19h jusqu'au 23 à 07h UTC


221838Z 2219/2307 04008KT P6SM FEW250
BECMG 2221/2223 07008KT RMK NXT FCST BY 230100Z



MET'MAP, la Météo Aéronautique d'un coup d'oeil ! - Copyright ORBIFLY Décembre 2007 - Disclaimer

ORBIFLY MET'MAP TEAM :

Programmation & Développement : Alexandra Zaïnal
Sur une idée originale de : Baudouin d'Aumeries
Assistance à la programmation : Marc-Olivier Méhu
Soutien technique & logistique : Manuel Goepfert

Contact : metmap@orbifly.com




SOURCES & CREDITS :

   NOAA       Earth
Advisory